Terminal Aerodrome Forecast
Issued by NWS

Home | Current Version | Previous Version | Text Only | Print | Product List | Glossary On
Versions: 1 2 3 4 5 6 7 8 9 10 11 12 13 14 15 16 17
000
FTUS41 KBTV 030534
TAFSLK
TAF
KSLK 030534Z 0306/0406 26004KT P6SM FEW250
     FM031500 20005KT P6SM SCT025 BKN100
     FM032000 18008KT 3SM -SHSN BR SCT020 OVC030
     FM032200 18009G18KT 1SM -SN BR SCT006 BKN010 OVC020
     FM040400 19013G26KT 2SM -SN BR SCT008 OVC010=

USA.gov is the U.S. government's official web portal to all federal, state and local government web resources and services.